createdAt,value
2022-09-23T00:01:36.062Z,1.25
2022-09-23T00:04:04.883Z,1.00
2022-09-23T00:06:33.609Z,1.00
2022-09-23T00:09:02.464Z,1.67
2022-09-23T00:11:31.262Z,2.00
2022-09-23T00:14:00.859Z,1.75
2022-09-23T00:16:34.463Z,0.75
2022-09-23T00:19:04.781Z,1.00
2022-09-23T00:21:33.405Z,1.00
2022-09-23T00:24:02.940Z,1.75
2022-09-23T00:26:31.650Z,1.50
2022-09-23T00:29:00.486Z,1.50
2022-09-23T00:31:29.166Z,1.25
2022-09-23T00:34:00.723Z,1.00
2022-09-23T00:36:30.918Z,1.00
2022-09-23T00:39:00.361Z,1.00
2022-09-23T00:41:29.199Z,1.00
2022-09-23T00:43:59.525Z,0.00
2022-09-23T00:46:38.162Z,1.00
2022-09-23T00:49:16.478Z,1.00
2022-09-23T00:51:51.011Z,1.00
2022-09-23T00:54:20.381Z,1.00
2022-09-23T00:56:49.083Z,1.00
2022-09-23T00:59:18.788Z,1.75
2022-09-23T01:01:49.988Z,1.00
2022-09-23T01:04:19.752Z,1.75
2022-09-23T01:06:48.866Z,0.75
2022-09-23T01:09:17.938Z,1.00
2022-09-23T01:12:13.178Z,1.00
2022-09-23T01:15:19.610Z,2.00
2022-09-23T01:18:29.782Z,0.67
2022-09-23T01:21:01.218Z,1.00
2022-09-23T01:23:48.035Z,0.75
2022-09-23T01:26:28.801Z,1.00
2022-09-23T01:29:34.673Z,0.75
2022-09-23T01:32:31.728Z,1.00
2022-09-23T01:35:05.503Z,1.00
2022-09-23T01:37:51.648Z,1.00
2022-09-23T01:40:27.643Z,1.00
2022-09-23T01:43:11.957Z,1.00
2022-09-23T01:45:53.936Z,1.00
2022-09-23T01:48:32.953Z,0.50
2022-09-23T01:51:10.040Z,0.67
2022-09-23T01:53:57.375Z,1.00
2022-09-23T01:56:52.191Z,1.00
2022-09-23T01:59:26.911Z,1.00
2022-09-23T02:02:00.268Z,1.25
2022-09-23T02:04:33.815Z,0.75
2022-09-23T02:07:35.557Z,1.00
2022-09-23T02:10:25.841Z,0.75
2022-09-23T02:13:00.334Z,1.50
2022-09-23T02:15:43.258Z,1.00
2022-09-23T02:18:29.293Z,1.00
2022-09-23T02:21:02.821Z,1.00
2022-09-23T02:23:44.989Z,0.00
2022-09-23T02:26:20.113Z,1.00
2022-09-23T02:29:01.490Z,1.00
2022-09-23T02:31:41.361Z,0.67
2022-09-23T02:34:19.102Z,1.67
2022-09-23T02:37:24.151Z,1.00
2022-09-23T02:40:01.297Z,1.00
2022-09-23T02:42:50.643Z,1.00
2022-09-23T02:45:19.553Z,1.00
2022-09-23T02:47:53.746Z,1.00
2022-09-23T02:50:22.756Z,0.75
2022-09-23T02:52:51.651Z,0.75
2022-09-23T02:55:22.792Z,1.25
2022-09-23T02:57:52.836Z,1.25
2022-09-23T03:00:21.496Z,1.00
2022-09-23T03:03:20.988Z,1.00
2022-09-23T03:05:59.959Z,1.00
2022-09-23T03:08:54.308Z,1.00
2022-09-23T03:11:23.054Z,0.75
2022-09-23T03:14:18.219Z,1.00
2022-09-23T03:16:59.686Z,1.25
2022-09-23T03:19:41.890Z,1.67
2022-09-23T03:22:37.818Z,1.00
2022-09-23T03:25:11.449Z,0.75
2022-09-23T03:27:42.740Z,0.75
2022-09-23T03:30:12.082Z,0.00
2022-09-23T03:32:45.308Z,1.00
2022-09-23T03:35:14.571Z,1.00
2022-09-23T03:37:48.826Z,1.00
2022-09-23T03:40:31.347Z,1.00
2022-09-23T03:43:01.819Z,0.50
2022-09-23T03:45:33.357Z,1.00
2022-09-23T03:48:02.880Z,2.00
2022-09-23T03:50:31.474Z,1.00
2022-09-23T03:53:00.171Z,1.00
2022-09-23T03:55:28.859Z,0.75
2022-09-23T03:57:57.456Z,1.00
2022-09-23T04:00:26.330Z,1.00
2022-09-23T04:02:54.895Z,1.25
2022-09-23T04:05:23.696Z,1.00
2022-09-23T04:07:52.689Z,1.00
2022-09-23T04:10:21.632Z,1.33
2022-09-23T04:12:50.371Z,1.00
2022-09-23T04:15:19.263Z,1.25
2022-09-23T04:17:47.856Z,2.00
2022-09-23T04:20:17.650Z,1.00
2022-09-23T04:22:46.432Z,1.75
2022-09-23T04:25:15.675Z,1.50
2022-09-23T04:27:44.233Z,2.00
2022-09-23T04:30:13.941Z,1.00
2022-09-23T04:32:42.511Z,1.00
2022-09-23T04:35:11.114Z,1.75
2022-09-23T04:37:40.310Z,1.00
2022-09-23T04:40:10.108Z,1.00
2022-09-23T04:42:38.794Z,0.75
2022-09-23T04:45:08.714Z,2.00
2022-09-23T04:47:37.706Z,1.33
2022-09-23T04:50:06.940Z,2.00
2022-09-23T04:52:35.499Z,1.00
2022-09-23T04:55:09.112Z,2.00
2022-09-23T04:57:39.939Z,2.00
2022-09-23T05:00:09.668Z,1.67
2022-09-23T05:02:44.063Z,1.50
2022-09-23T05:05:13.577Z,1.33
2022-09-23T05:07:42.209Z,1.00
2022-09-23T05:10:11.150Z,1.75
2022-09-23T05:12:39.722Z,2.00
2022-09-23T05:15:08.865Z,1.00
2022-09-23T05:17:37.728Z,2.00
2022-09-23T05:20:07.041Z,2.50
2022-09-23T05:22:35.902Z,3.00
2022-09-23T05:25:05.220Z,3.50
2022-09-23T05:27:33.905Z,3.75
2022-09-23T05:30:02.701Z,2.33
2022-09-23T05:32:32.290Z,3.00
2022-09-23T05:35:01.112Z,2.33
2022-09-23T05:37:29.778Z,3.00
2022-09-23T05:39:58.567Z,3.00
2022-09-23T05:42:27.033Z,4.50
2022-09-23T05:44:56.756Z,4.00
2022-09-23T05:47:25.635Z,4.00
2022-09-23T05:50:01.754Z,1.50
2022-09-23T05:52:30.587Z,2.50
2022-09-23T05:54:59.068Z,3.00
2022-09-23T05:57:27.902Z,3.67
2022-09-23T05:59:56.440Z,4.00
2022-09-23T06:02:25.502Z,4.33
2022-09-23T06:04:54.545Z,3.50
2022-09-23T06:07:23.235Z,2.50
2022-09-23T06:09:54.384Z,3.00
2022-09-23T06:12:23.765Z,3.00
2022-09-23T06:14:53.457Z,2.67
2022-09-23T06:17:21.855Z,2.67
2022-09-23T06:19:50.747Z,3.00
2022-09-23T06:22:19.343Z,3.00
2022-09-23T06:24:47.914Z,0.50
2022-09-23T06:27:16.411Z,0.00
2022-09-23T06:29:45.299Z,2.75
2022-09-23T06:32:14.101Z,2.75
2022-09-23T06:34:51.716Z,2.00
2022-09-23T06:37:21.057Z,2.00
2022-09-23T06:39:49.983Z,2.33
2022-09-23T06:42:18.463Z,3.00
2022-09-23T06:44:47.069Z,3.33
2022-09-23T06:47:15.821Z,2.67
2022-09-23T06:49:44.507Z,3.00
2022-09-23T06:52:13.622Z,3.00
2022-09-23T06:54:42.610Z,3.75
2022-09-23T06:57:11.097Z,3.67
2022-09-23T06:59:39.783Z,3.00
2022-09-23T07:02:12.787Z,3.00
2022-09-23T07:04:41.645Z,2.25
2022-09-23T07:07:12.090Z,1.00
2022-09-23T07:09:40.772Z,2.75
2022-09-23T07:12:09.664Z,2.00
2022-09-23T07:14:38.760Z,2.75
2022-09-23T07:17:07.740Z,3.00
2022-09-23T07:19:36.739Z,2.50
2022-09-23T07:22:06.036Z,2.00
2022-09-23T07:24:34.736Z,2.00
2022-09-23T07:27:03.347Z,2.00
2022-09-23T07:29:41.642Z,3.00
2022-09-23T07:32:14.873Z,1.00
2022-09-23T07:34:43.923Z,2.00
2022-09-23T07:37:12.593Z,1.25
2022-09-23T07:39:42.324Z,2.00
2022-09-23T07:42:12.763Z,1.50
2022-09-23T07:44:47.209Z,2.75
2022-09-23T07:47:18.108Z,2.00
2022-09-23T07:49:46.878Z,1.25
2022-09-23T07:52:15.667Z,2.00
2022-09-23T07:54:48.194Z,2.00
2022-09-23T07:57:17.099Z,2.00
2022-09-23T07:59:45.634Z,2.00
2022-09-23T08:02:16.911Z,3.00
2022-09-23T08:04:46.809Z,3.00
2022-09-23T08:07:16.893Z,1.25
2022-09-23T08:09:46.339Z,0.25
2022-09-23T08:12:17.891Z,2.00
2022-09-23T08:14:46.646Z,2.00
2022-09-23T08:17:15.553Z,2.00
2022-09-23T08:19:44.239Z,0.00
2022-09-23T08:22:13.013Z,2.25
2022-09-23T08:24:41.408Z,0.75
2022-09-23T08:27:11.322Z,1.00
2022-09-23T08:29:40.116Z,1.00
2022-09-23T08:32:08.803Z,2.00
2022-09-23T08:34:37.592Z,1.33
2022-09-23T08:37:10.963Z,2.00
2022-09-23T08:39:39.672Z,3.33
2022-09-23T08:42:32.962Z,2.00
2022-09-23T08:45:04.435Z,0.25
2022-09-23T08:47:55.910Z,2.33
2022-09-23T08:50:29.778Z,2.00
2022-09-23T08:53:10.077Z,2.00
2022-09-23T08:55:42.445Z,1.00
2022-09-23T08:58:30.075Z,1.67
2022-09-23T09:01:19.491Z,1.75
2022-09-23T09:03:49.451Z,1.33
2022-09-23T09:06:27.683Z,2.00
2022-09-23T09:08:59.904Z,2.00
2022-09-23T09:11:37.834Z,1.50
2022-09-23T09:14:36.627Z,2.00
2022-09-23T09:17:22.640Z,1.50
2022-09-23T09:20:03.813Z,1.00
2022-09-23T09:25:20.331Z,0.00
2022-09-23T09:27:49.332Z,2.00
2022-09-23T09:30:18.473Z,1.50
2022-09-23T09:33:01.142Z,1.00
2022-09-23T09:35:42.002Z,1.00
2022-09-23T09:38:10.491Z,1.50
2022-09-23T09:40:46.789Z,1.75
2022-09-23T09:43:23.888Z,1.25
2022-09-23T09:46:23.127Z,1.50
2022-09-23T09:49:02.824Z,1.25
2022-09-23T09:51:31.682Z,2.00
2022-09-23T09:54:27.947Z,1.00
2022-09-23T09:56:56.642Z,2.00
2022-09-23T09:59:28.094Z,1.00
2022-09-23T10:02:33.431Z,2.00
2022-09-23T10:05:08.031Z,1.00
2022-09-23T10:07:36.740Z,1.25
2022-09-23T10:10:35.027Z,2.00
2022-09-23T10:13:15.806Z,2.00
2022-09-23T10:15:45.552Z,1.75
2022-09-23T10:18:27.615Z,1.25
2022-09-23T10:21:16.990Z,1.00
2022-09-23T10:23:48.330Z,1.75
2022-09-23T10:26:19.787Z,1.25
2022-09-23T10:28:55.858Z,0.75
2022-09-23T10:31:35.606Z,2.00
2022-09-23T10:34:25.359Z,0.00
2022-09-23T10:37:08.383Z,1.33
2022-09-23T10:39:55.708Z,2.00
2022-09-23T10:42:42.744Z,1.33
2022-09-23T10:45:43.883Z,0.50
2022-09-23T10:48:13.178Z,0.25
2022-09-23T10:50:49.246Z,0.00
2022-09-23T10:53:24.042Z,1.67
2022-09-23T10:56:17.265Z,1.00
2022-09-23T10:58:46.431Z,1.75
2022-09-23T11:01:30.153Z,1.00
2022-09-23T11:04:19.215Z,1.25
2022-09-23T11:07:15.574Z,1.00
2022-09-23T11:10:03.106Z,1.00
2022-09-23T11:12:51.055Z,0.25
2022-09-23T11:15:39.490Z,0.25
2022-09-23T11:18:45.875Z,1.67
2022-09-23T11:21:46.297Z,1.00
2022-09-23T11:24:36.385Z,1.00
2022-09-23T11:27:26.578Z,1.00
2022-09-23T11:30:24.535Z,1.00
2022-09-23T11:33:14.535Z,1.67
2022-09-23T11:36:09.139Z,1.00
2022-09-23T11:38:44.316Z,0.00
2022-09-23T11:41:26.395Z,2.00
2022-09-23T11:44:09.088Z,1.25
2022-09-23T11:47:10.147Z,2.00
2022-09-23T11:49:48.243Z,2.75
2022-09-23T11:52:32.905Z,1.50
2022-09-23T11:55:21.991Z,0.75
2022-09-23T11:58:13.204Z,0.75
2022-09-23T12:01:08.817Z,1.00
2022-09-23T12:04:16.857Z,2.00
2022-09-23T12:06:53.419Z,1.00
2022-09-23T12:09:47.269Z,1.25
2022-09-23T12:12:30.830Z,0.33
2022-09-23T12:15:08.665Z,3.00
2022-09-23T12:18:23.294Z,2.33
2022-09-23T12:21:22.127Z,1.50
2022-09-23T12:24:18.996Z,0.50
2022-09-23T12:26:52.509Z,2.00
2022-09-23T12:29:21.518Z,2.33
2022-09-23T12:31:50.494Z,1.50
2022-09-23T12:34:41.697Z,2.00
2022-09-23T12:37:10.291Z,2.25
2022-09-23T12:39:39.813Z,2.00
2022-09-23T12:42:20.378Z,1.25
2022-09-23T12:44:49.776Z,2.00
2022-09-23T12:47:21.743Z,2.25
2022-09-23T12:49:51.341Z,1.00
2022-09-23T12:52:19.925Z,1.00
2022-09-23T12:54:50.483Z,2.50
2022-09-23T12:57:34.107Z,1.25
2022-09-23T13:00:13.175Z,2.25
2022-09-23T13:03:11.507Z,1.25
2022-09-23T13:06:32.625Z,1.67
2022-09-23T13:09:02.977Z,1.67
2022-09-23T13:11:33.172Z,2.00
2022-09-23T13:14:04.007Z,1.25
2022-09-23T13:16:42.466Z,1.50
2022-09-23T13:19:26.960Z,3.00
2022-09-23T13:21:59.690Z,3.75
2022-09-23T13:24:31.624Z,3.00
2022-09-23T13:27:03.899Z,1.25
2022-09-23T13:29:44.100Z,1.00
2022-09-23T13:32:15.367Z,3.50
2022-09-23T13:34:48.176Z,6.75
2022-09-23T13:37:26.568Z,8.00
2022-09-23T13:40:10.878Z,6.00
2022-09-23T13:42:42.263Z,7.75
2022-09-23T13:45:17.981Z,6.00
2022-09-23T13:47:49.302Z,3.33
2022-09-23T13:50:24.343Z,4.00
2022-09-23T13:53:00.218Z,3.00
2022-09-23T13:55:39.507Z,3.00
2022-09-23T13:58:24.610Z,5.50
2022-09-23T14:00:53.537Z,2.00
2022-09-23T14:03:35.888Z,4.00
2022-09-23T14:06:11.747Z,3.50
2022-09-23T14:08:43.757Z,3.00
2022-09-23T14:11:22.639Z,3.75
2022-09-23T14:13:55.426Z,3.50
2022-09-23T14:16:26.805Z,3.50
2022-09-23T14:19:00.589Z,2.25
2022-09-23T14:21:35.431Z,3.00
2022-09-23T14:24:21.955Z,3.33
2022-09-23T14:26:54.266Z,2.00
2022-09-23T14:29:29.556Z,3.50
2022-09-23T14:32:02.400Z,4.00
2022-09-23T14:34:48.509Z,3.00
2022-09-23T14:37:44.659Z,3.50
2022-09-23T14:40:17.476Z,3.00
2022-09-23T14:42:57.312Z,2.75
2022-09-23T14:45:28.237Z,2.00
2022-09-23T14:48:13.401Z,3.00
2022-09-23T14:50:57.042Z,3.50
2022-09-23T14:53:34.342Z,3.00
2022-09-23T14:56:15.289Z,3.50
2022-09-23T14:58:52.640Z,4.00
2022-09-23T15:01:35.236Z,3.00
2022-09-23T15:04:13.105Z,1.67
2022-09-23T15:06:47.619Z,1.67
2022-09-23T15:09:21.891Z,2.00
2022-09-23T15:11:58.615Z,2.75
2022-09-23T15:14:39.187Z,3.00
2022-09-23T15:17:35.525Z,3.25
2022-09-23T15:20:08.561Z,3.00
2022-09-23T15:22:57.266Z,4.00
2022-09-23T15:25:32.398Z,3.75
2022-09-23T15:28:17.811Z,3.75
2022-09-23T15:30:46.257Z,2.00
2022-09-23T15:33:16.657Z,2.25
2022-09-23T15:35:49.578Z,2.75
2022-09-23T15:38:18.546Z,3.00
2022-09-23T15:40:48.006Z,2.50
2022-09-23T15:43:21.757Z,2.00
2022-09-23T15:45:59.231Z,3.50
2022-09-23T15:48:37.250Z,1.75
2022-09-23T15:51:07.429Z,2.75
2022-09-23T15:53:38.513Z,2.00
2022-09-23T15:56:07.239Z,2.00
2022-09-23T15:58:36.321Z,2.00
2022-09-23T16:01:06.179Z,1.25
2022-09-23T16:03:35.343Z,3.25
2022-09-23T16:06:06.503Z,3.25
2022-09-23T16:08:35.066Z,4.50
2022-09-23T16:11:03.745Z,2.75
2022-09-23T16:13:32.437Z,5.00
2022-09-23T16:16:01.400Z,4.67
2022-09-23T16:18:30.220Z,3.33
2022-09-23T16:20:59.956Z,4.00
2022-09-23T16:23:40.693Z,3.00
2022-09-23T16:26:09.178Z,3.33
2022-09-23T16:28:38.285Z,2.50
2022-09-23T16:31:07.130Z,3.75
2022-09-23T16:33:36.111Z,2.50
2022-09-23T16:36:06.190Z,3.00
2022-09-23T16:38:34.880Z,3.00
2022-09-23T16:41:03.785Z,4.25
2022-09-23T16:43:39.866Z,2.75
2022-09-23T16:46:14.846Z,3.00
2022-09-23T16:48:48.297Z,2.75
2022-09-23T16:51:23.515Z,5.00
2022-09-23T16:53:52.726Z,4.00
2022-09-23T16:56:28.263Z,3.75
2022-09-23T16:58:57.533Z,4.25
2022-09-23T17:01:47.364Z,3.00
2022-09-23T17:04:17.757Z,4.25
2022-09-23T17:06:50.889Z,4.00
2022-09-23T17:09:21.988Z,2.50
2022-09-23T17:11:59.632Z,4.67
2022-09-23T17:14:31.585Z,5.50
2022-09-23T17:17:00.225Z,4.50
2022-09-23T17:19:29.189Z,2.67
2022-09-23T17:21:57.813Z,4.00
2022-09-23T17:24:26.722Z,1.75
2022-09-23T17:26:55.490Z,4.00
2022-09-23T17:29:25.581Z,4.67
2022-09-23T17:31:54.679Z,5.00
2022-09-23T17:34:24.455Z,4.00
2022-09-23T17:36:53.212Z,4.50
2022-09-23T17:39:23.229Z,3.00
2022-09-23T17:41:55.795Z,4.00
2022-09-23T17:44:25.105Z,3.25
2022-09-23T17:46:53.643Z,5.00
2022-09-23T17:49:24.834Z,2.25
2022-09-23T17:51:54.236Z,4.00
2022-09-23T17:54:23.437Z,3.00
2022-09-23T17:56:52.429Z,2.00
2022-09-23T17:59:21.624Z,2.25
2022-09-23T18:01:50.514Z,3.33
2022-09-23T18:04:19.836Z,4.00
2022-09-23T18:06:48.872Z,2.75
2022-09-23T18:09:18.013Z,3.00
2022-09-23T18:11:49.593Z,3.00
2022-09-23T18:14:21.527Z,3.33
2022-09-23T18:16:52.405Z,5.00
2022-09-23T18:19:23.497Z,3.00
2022-09-23T18:21:54.955Z,2.33
2022-09-23T18:24:32.662Z,3.75
2022-09-23T18:27:03.289Z,4.00
2022-09-23T18:29:33.691Z,3.00
2022-09-23T18:32:03.361Z,4.00
2022-09-23T18:34:33.140Z,4.00
2022-09-23T18:37:02.203Z,4.75
2022-09-23T18:39:31.235Z,3.00
2022-09-23T18:42:00.659Z,3.25
2022-09-23T18:44:29.422Z,1.25
2022-09-23T18:46:58.312Z,4.00
2022-09-23T18:49:45.129Z,4.00
2022-09-23T18:52:14.113Z,3.25
2022-09-23T18:54:44.380Z,3.25
2022-09-23T18:57:15.165Z,3.33
2022-09-23T18:59:44.831Z,2.50
2022-09-23T19:02:15.882Z,1.33
2022-09-23T19:04:44.718Z,3.75
2022-09-23T19:07:13.509Z,3.75
2022-09-23T19:09:42.297Z,0.50
2022-09-23T19:12:10.983Z,2.50
2022-09-23T19:14:40.115Z,2.67
2022-09-23T19:17:09.277Z,1.75
2022-09-23T19:19:38.272Z,3.00
2022-09-23T19:22:07.164Z,5.00
2022-09-23T19:24:36.161Z,3.25
2022-09-23T19:27:04.961Z,4.25
2022-09-23T19:29:33.941Z,2.33
2022-09-23T19:32:03.075Z,2.75
2022-09-23T19:34:32.915Z,1.00
2022-09-23T19:37:05.120Z,3.00
2022-09-23T19:39:35.210Z,3.25
2022-09-23T19:42:04.340Z,2.33
2022-09-23T19:44:33.128Z,3.33
2022-09-23T19:47:02.060Z,2.25
2022-09-23T19:49:31.941Z,3.50
2022-09-23T19:52:00.924Z,2.75
2022-09-23T19:54:29.820Z,2.33
2022-09-23T19:56:59.793Z,2.50
2022-09-23T19:59:28.726Z,3.00
2022-09-23T20:01:57.394Z,3.00
2022-09-23T20:04:26.653Z,3.25
2022-09-23T20:06:55.521Z,1.50
2022-09-23T20:09:24.397Z,1.00
2022-09-23T20:11:53.384Z,3.25
2022-09-23T20:14:23.011Z,2.00
2022-09-23T20:16:52.705Z,4.00
2022-09-23T20:19:22.249Z,2.25
2022-09-23T20:22:11.279Z,3.00
2022-09-23T20:24:40.166Z,3.00
2022-09-23T20:27:09.264Z,3.50
2022-09-23T20:29:38.356Z,3.00
2022-09-23T20:32:07.671Z,3.00
2022-09-23T20:34:36.647Z,3.25
2022-09-23T20:37:06.702Z,2.00
2022-09-23T20:39:35.262Z,3.00
2022-09-23T20:42:04.576Z,3.00
2022-09-23T20:44:34.162Z,1.33
2022-09-23T20:47:03.515Z,3.00
2022-09-23T20:49:34.609Z,2.50
2022-09-23T20:52:03.909Z,3.00
2022-09-23T20:54:32.804Z,2.50
2022-09-23T20:57:01.814Z,1.00
2022-09-23T20:59:30.821Z,2.75
2022-09-23T21:01:59.747Z,3.00
2022-09-23T21:04:30.136Z,2.25
2022-09-23T21:06:59.202Z,0.00
2022-09-23T21:09:29.374Z,2.33
2022-09-23T21:11:58.218Z,2.50
2022-09-23T21:14:26.917Z,2.75
2022-09-23T21:16:55.484Z,2.00
2022-09-23T21:19:25.606Z,2.00
2022-09-23T21:21:54.600Z,2.75
2022-09-23T21:27:12.657Z,3.00
2022-09-23T21:29:41.137Z,2.50
2022-09-23T21:32:10.879Z,2.00
2022-09-23T21:34:39.639Z,3.33
2022-09-23T21:37:08.877Z,3.00
2022-09-23T21:39:37.523Z,2.00
2022-09-23T21:42:06.725Z,2.50
2022-09-23T21:44:35.817Z,2.00
2022-09-23T21:47:04.802Z,2.00
2022-09-23T21:49:33.709Z,2.00
2022-09-23T21:52:03.027Z,3.00
2022-09-23T21:54:32.614Z,3.00
2022-09-23T21:57:01.399Z,2.00
2022-09-23T21:59:30.295Z,2.00
2022-09-23T22:01:59.797Z,1.25
2022-09-23T22:04:29.342Z,3.00
2022-09-23T22:07:00.711Z,2.00
2022-09-23T22:09:29.346Z,1.33
2022-09-23T22:12:08.368Z,2.00
2022-09-23T22:14:37.367Z,2.33
2022-09-23T22:17:08.760Z,3.67
2022-09-23T22:19:45.624Z,2.00
2022-09-23T22:22:18.129Z,2.00
2022-09-23T22:24:48.262Z,2.75
2022-09-23T22:27:18.953Z,2.25
2022-09-23T22:30:06.454Z,1.00
2022-09-23T22:32:41.282Z,2.00
2022-09-23T22:35:12.200Z,2.50
2022-09-23T22:37:41.012Z,2.00
2022-09-23T22:40:14.632Z,2.50
2022-09-23T22:42:43.915Z,2.67
2022-09-23T22:45:14.461Z,2.00
2022-09-23T22:47:45.915Z,1.00
2022-09-23T22:50:15.307Z,2.00
2022-09-23T22:52:45.524Z,1.00
2022-09-23T22:55:14.203Z,2.00
2022-09-23T22:57:43.096Z,2.00
2022-09-23T23:00:12.946Z,1.75
2022-09-23T23:02:42.829Z,1.00
2022-09-23T23:05:12.254Z,2.00
2022-09-23T23:07:41.629Z,1.67
2022-09-23T23:10:10.746Z,3.00
2022-09-23T23:12:40.049Z,2.50
2022-09-23T23:15:12.251Z,1.00
2022-09-23T23:17:43.758Z,2.50
2022-09-23T23:20:13.492Z,1.00
2022-09-23T23:22:42.451Z,2.00
2022-09-23T23:25:11.857Z,2.00
2022-09-23T23:27:40.568Z,1.00
2022-09-23T23:30:10.124Z,2.00
2022-09-23T23:32:38.735Z,2.25
2022-09-23T23:35:09.089Z,2.00
2022-09-23T23:37:38.608Z,1.00
2022-09-23T23:40:08.235Z,2.00
2022-09-23T23:42:37.202Z,2.00
2022-09-23T23:45:06.693Z,2.50
2022-09-23T23:47:36.380Z,2.33
2022-09-23T23:50:05.993Z,3.00
2022-09-23T23:52:34.882Z,1.00
2022-09-23T23:55:04.082Z,1.00
2022-09-23T23:57:32.869Z,2.25
